sensor_id;sensor_type;location;lat;lon;timestamp;P1;durP1;ratioP1;P2;durP2;ratioP2
25175;SDS011;13135;55.166;61.286;2023-05-28T00:01:20;12.77;;;10.60;;
25175;SDS011;13135;55.166;61.286;2023-05-28T00:04:05;13.48;;;10.05;;
25175;SDS011;13135;55.166;61.286;2023-05-28T00:06:50;13.02;;;10.30;;
25175;SDS011;13135;55.166;61.286;2023-05-28T00:09:34;13.20;;;10.35;;
25175;SDS011;13135;55.166;61.286;2023-05-28T00:12:24;13.50;;;11.05;;
25175;SDS011;13135;55.166;61.286;2023-05-28T00:15:09;12.95;;;10.45;;
25175;SDS011;13135;55.166;61.286;2023-05-28T00:17:54;14.35;;;11.55;;
25175;SDS011;13135;55.166;61.286;2023-05-28T00:20:37;15.70;;;11.38;;
25175;SDS011;13135;55.166;61.286;2023-05-28T00:23:21;15.80;;;11.00;;
25175;SDS011;13135;55.166;61.286;2023-05-28T00:26:06;18.85;;;11.82;;
25175;SDS011;13135;55.166;61.286;2023-05-28T00:28:48;14.40;;;10.95;;
25175;SDS011;13135;55.166;61.286;2023-05-28T00:31:32;17.83;;;11.50;;
25175;SDS011;13135;55.166;61.286;2023-05-28T00:34:16;12.63;;;10.73;;
25175;SDS011;13135;55.166;61.286;2023-05-28T00:37:01;14.65;;;11.40;;
25175;SDS011;13135;55.166;61.286;2023-05-28T00:39:46;17.08;;;11.02;;
25175;SDS011;13135;55.166;61.286;2023-05-28T00:42:30;15.27;;;11.77;;
25175;SDS011;13135;55.166;61.286;2023-05-28T00:45:15;16.80;;;12.37;;
25175;SDS011;13135;55.166;61.286;2023-05-28T00:48:00;18.08;;;12.30;;
25175;SDS011;13135;55.166;61.286;2023-05-28T00:50:44;17.65;;;11.63;;
25175;SDS011;13135;55.166;61.286;2023-05-28T00:53:29;16.37;;;12.18;;
25175;SDS011;13135;55.166;61.286;2023-05-28T00:56:19;15.57;;;12.30;;
25175;SDS011;13135;55.166;61.286;2023-05-28T00:59:04;18.87;;;12.18;;
25175;SDS011;13135;55.166;61.286;2023-05-28T01:01:49;16.40;;;11.95;;
25175;SDS011;13135;55.166;61.286;2023-05-28T01:04:33;15.15;;;11.75;;
25175;SDS011;13135;55.166;61.286;2023-05-28T01:07:16;18.50;;;11.52;;
25175;SDS011;13135;55.166;61.286;2023-05-28T01:10:02;17.45;;;11.27;;
25175;SDS011;13135;55.166;61.286;2023-05-28T01:12:46;15.70;;;11.80;;
25175;SDS011;13135;55.166;61.286;2023-05-28T01:15:30;17.87;;;12.10;;
25175;SDS011;13135;55.166;61.286;2023-05-28T01:18:15;15.23;;;11.57;;
25175;SDS011;13135;55.166;61.286;2023-05-28T01:21:00;18.58;;;11.75;;
25175;SDS011;13135;55.166;61.286;2023-05-28T01:23:44;16.87;;;11.95;;
25175;SDS011;13135;55.166;61.286;2023-05-28T01:26:29;14.80;;;11.43;;
25175;SDS011;13135;55.166;61.286;2023-05-28T01:29:14;16.58;;;11.12;;
25175;SDS011;13135;55.166;61.286;2023-05-28T01:31:59;15.93;;;10.75;;
25175;SDS011;13135;55.166;61.286;2023-05-28T01:34:43;15.77;;;11.93;;
25175;SDS011;13135;55.166;61.286;2023-05-28T01:37:28;15.05;;;10.80;;
25175;SDS011;13135;55.166;61.286;2023-05-28T01:40:13;14.07;;;11.48;;
25175;SDS011;13135;55.166;61.286;2023-05-28T01:42:59;14.87;;;11.85;;
25175;SDS011;13135;55.166;61.286;2023-05-28T01:45:44;14.57;;;11.73;;
25175;SDS011;13135;55.166;61.286;2023-05-28T01:48:29;19.10;;;12.43;;
25175;SDS011;13135;55.166;61.286;2023-05-28T01:51:16;16.23;;;12.57;;
25175;SDS011;13135;55.166;61.286;2023-05-28T01:54:01;19.08;;;12.52;;
25175;SDS011;13135;55.166;61.286;2023-05-28T01:56:44;18.62;;;12.85;;
25175;SDS011;13135;55.166;61.286;2023-05-28T01:59:29;19.02;;;13.13;;
25175;SDS011;13135;55.166;61.286;2023-05-28T02:02:15;16.90;;;12.52;;
25175;SDS011;13135;55.166;61.286;2023-05-28T02:05:00;17.55;;;12.63;;
25175;SDS011;13135;55.166;61.286;2023-05-28T02:07:45;19.33;;;12.65;;
25175;SDS011;13135;55.166;61.286;2023-05-28T02:10:29;16.10;;;12.40;;
25175;SDS011;13135;55.166;61.286;2023-05-28T02:13:13;15.02;;;12.20;;
25175;SDS011;13135;55.166;61.286;2023-05-28T02:15:57;19.67;;;12.93;;
25175;SDS011;13135;55.166;61.286;2023-05-28T02:18:42;17.48;;;12.80;;
25175;SDS011;13135;55.166;61.286;2023-05-28T02:21:28;18.30;;;12.32;;
25175;SDS011;13135;55.166;61.286;2023-05-28T02:24:12;18.37;;;13.43;;
25175;SDS011;13135;55.166;61.286;2023-05-28T02:26:57;18.20;;;13.57;;
25175;SDS011;13135;55.166;61.286;2023-05-28T02:29:42;20.20;;;13.57;;
25175;SDS011;13135;55.166;61.286;2023-05-28T02:32:27;19.00;;;12.95;;
25175;SDS011;13135;55.166;61.286;2023-05-28T02:35:13;16.52;;;12.75;;
25175;SDS011;13135;55.166;61.286;2023-05-28T02:37:59;20.35;;;13.23;;
25175;SDS011;13135;55.166;61.286;2023-05-28T02:40:44;17.80;;;12.98;;
25175;SDS011;13135;55.166;61.286;2023-05-28T02:43:29;16.30;;;12.43;;
25175;SDS011;13135;55.166;61.286;2023-05-28T02:46:16;20.98;;;14.65;;
25175;SDS011;13135;55.166;61.286;2023-05-28T02:49:01;17.12;;;12.57;;
25175;SDS011;13135;55.166;61.286;2023-05-28T02:51:46;18.12;;;13.88;;
25175;SDS011;13135;55.166;61.286;2023-05-28T02:54:31;18.15;;;13.32;;
25175;SDS011;13135;55.166;61.286;2023-05-28T02:57:16;18.20;;;13.68;;
25175;SDS011;13135;55.166;61.286;2023-05-28T03:00:01;19.52;;;13.62;;
25175;SDS011;13135;55.166;61.286;2023-05-28T03:02:46;20.55;;;15.07;;
25175;SDS011;13135;55.166;61.286;2023-05-28T03:05:31;17.12;;;13.77;;
25175;SDS011;13135;55.166;61.286;2023-05-28T03:08:15;18.92;;;13.95;;
25175;SDS011;13135;55.166;61.286;2023-05-28T03:11:00;23.33;;;14.70;;
25175;SDS011;13135;55.166;61.286;2023-05-28T03:13:47;22.90;;;15.13;;
25175;SDS011;13135;55.166;61.286;2023-05-28T03:16:32;18.15;;;13.57;;
25175;SDS011;13135;55.166;61.286;2023-05-28T03:19:17;19.12;;;14.68;;
25175;SDS011;13135;55.166;61.286;2023-05-28T03:22:02;17.70;;;13.73;;
25175;SDS011;13135;55.166;61.286;2023-05-28T03:24:47;17.20;;;14.05;;
25175;SDS011;13135;55.166;61.286;2023-05-28T03:27:34;18.27;;;14.00;;
25175;SDS011;13135;55.166;61.286;2023-05-28T03:30:19;20.48;;;15.57;;
25175;SDS011;13135;55.166;61.286;2023-05-28T03:33:04;18.15;;;14.27;;
25175;SDS011;13135;55.166;61.286;2023-05-28T03:35:47;18.95;;;14.70;;
25175;SDS011;13135;55.166;61.286;2023-05-28T03:38:32;16.92;;;14.00;;
25175;SDS011;13135;55.166;61.286;2023-05-28T03:41:17;19.40;;;14.60;;
25175;SDS011;13135;55.166;61.286;2023-05-28T03:44:03;18.00;;;13.80;;
25175;SDS011;13135;55.166;61.286;2023-05-28T03:46:47;20.40;;;15.18;;
25175;SDS011;13135;55.166;61.286;2023-05-28T03:49:34;17.92;;;14.10;;
25175;SDS011;13135;55.166;61.286;2023-05-28T03:52:19;20.62;;;15.27;;
25175;SDS011;13135;55.166;61.286;2023-05-28T03:55:05;21.85;;;14.40;;
25175;SDS011;13135;55.166;61.286;2023-05-28T03:57:50;19.92;;;13.77;;
25175;SDS011;13135;55.166;61.286;2023-05-28T04:00:35;18.98;;;14.63;;
25175;SDS011;13135;55.166;61.286;2023-05-28T04:03:20;19.48;;;14.77;;
25175;SDS011;13135;55.166;61.286;2023-05-28T04:06:05;23.48;;;15.27;;
25175;SDS011;13135;55.166;61.286;2023-05-28T04:08:50;17.58;;;14.60;;
25175;SDS011;13135;55.166;61.286;2023-05-28T04:11:35;18.37;;;14.68;;
25175;SDS011;13135;55.166;61.286;2023-05-28T04:14:19;18.92;;;14.85;;
25175;SDS011;13135;55.166;61.286;2023-05-28T04:17:04;19.20;;;14.55;;
25175;SDS011;13135;55.166;61.286;2023-05-28T04:19:48;19.92;;;14.95;;
25175;SDS011;13135;55.166;61.286;2023-05-28T04:22:35;21.30;;;17.58;;
25175;SDS011;13135;55.166;61.286;2023-05-28T04:25:20;20.55;;;15.50;;
25175;SDS011;13135;55.166;61.286;2023-05-28T04:28:05;21.95;;;16.83;;
25175;SDS011;13135;55.166;61.286;2023-05-28T04:30:49;18.75;;;15.52;;
25175;SDS011;13135;55.166;61.286;2023-05-28T04:44:01;21.17;;;16.27;;
25175;SDS011;13135;55.166;61.286;2023-05-28T04:46:46;19.20;;;16.25;;
25175;SDS011;13135;55.166;61.286;2023-05-28T04:49:31;20.55;;;15.85;;
25175;SDS011;13135;55.166;61.286;2023-05-28T04:52:15;19.77;;;15.25;;
25175;SDS011;13135;55.166;61.286;2023-05-28T04:55:00;18.98;;;15.52;;
25175;SDS011;13135;55.166;61.286;2023-05-28T04:57:45;19.92;;;14.87;;
25175;SDS011;13135;55.166;61.286;2023-05-28T05:00:29;17.87;;;15.15;;
25175;SDS011;13135;55.166;61.286;2023-05-28T05:03:16;22.20;;;15.57;;
25175;SDS011;13135;55.166;61.286;2023-05-28T05:06:00;19.30;;;15.32;;
25175;SDS011;13135;55.166;61.286;2023-05-28T05:08:47;20.15;;;14.65;;
25175;SDS011;13135;55.166;61.286;2023-05-28T05:11:34;24.85;;;15.80;;
25175;SDS011;13135;55.166;61.286;2023-05-28T05:14:21;20.73;;;14.70;;
25175;SDS011;13135;55.166;61.286;2023-05-28T05:17:05;17.15;;;13.90;;
25175;SDS011;13135;55.166;61.286;2023-05-28T05:20:02;20.67;;;15.43;;
25175;SDS011;13135;55.166;61.286;2023-05-28T05:22:45;19.17;;;14.65;;
25175;SDS011;13135;55.166;61.286;2023-05-28T05:25:31;25.08;;;16.05;;
25175;SDS011;13135;55.166;61.286;2023-05-28T05:28:17;21.98;;;15.38;;
25175;SDS011;13135;55.166;61.286;2023-05-28T05:31:02;20.08;;;15.30;;
25175;SDS011;13135;55.166;61.286;2023-05-28T05:33:47;17.87;;;14.48;;
25175;SDS011;13135;55.166;61.286;2023-05-28T05:36:33;19.95;;;13.48;;
25175;SDS011;13135;55.166;61.286;2023-05-28T05:39:20;16.70;;;13.70;;
25175;SDS011;13135;55.166;61.286;2023-05-28T05:42:07;14.98;;;13.02;;
25175;SDS011;13135;55.166;61.286;2023-05-28T05:44:55;15.57;;;13.00;;
25175;SDS011;13135;55.166;61.286;2023-05-28T05:47:40;20.45;;;13.65;;
25175;SDS011;13135;55.166;61.286;2023-05-28T05:50:25;18.00;;;14.13;;
25175;SDS011;13135;55.166;61.286;2023-05-28T05:53:12;16.95;;;14.40;;
25175;SDS011;13135;55.166;61.286;2023-05-28T05:55:57;16.20;;;13.45;;
25175;SDS011;13135;55.166;61.286;2023-05-28T05:58:41;22.35;;;13.82;;
25175;SDS011;13135;55.166;61.286;2023-05-28T06:01:25;17.20;;;14.35;;
25175;SDS011;13135;55.166;61.286;2023-05-28T06:04:10;15.85;;;13.05;;
25175;SDS011;13135;55.166;61.286;2023-05-28T06:06:57;15.60;;;11.57;;
25175;SDS011;13135;55.166;61.286;2023-05-28T06:09:41;15.45;;;12.30;;
25175;SDS011;13135;55.166;61.286;2023-05-28T06:12:27;16.52;;;11.70;;
25175;SDS011;13135;55.166;61.286;2023-05-28T06:15:12;15.30;;;11.48;;
25175;SDS011;13135;55.166;61.286;2023-05-28T06:17:56;12.10;;;10.82;;
25175;SDS011;13135;55.166;61.286;2023-05-28T06:20:40;14.27;;;11.30;;
25175;SDS011;13135;55.166;61.286;2023-05-28T06:23:27;13.95;;;11.07;;
25175;SDS011;13135;55.166;61.286;2023-05-28T06:26:12;14.18;;;11.27;;
25175;SDS011;13135;55.166;61.286;2023-05-28T06:28:57;15.85;;;12.63;;
25175;SDS011;13135;55.166;61.286;2023-05-28T06:31:42;15.20;;;11.73;;
25175;SDS011;13135;55.166;61.286;2023-05-28T06:34:27;12.25;;;10.77;;
25175;SDS011;13135;55.166;61.286;2023-05-28T06:37:12;13.32;;;10.88;;
25175;SDS011;13135;55.166;61.286;2023-05-28T06:39:56;14.18;;;10.60;;
25175;SDS011;13135;55.166;61.286;2023-05-28T06:42:41;14.30;;;10.27;;
25175;SDS011;13135;55.166;61.286;2023-05-28T06:45:25;14.23;;;10.88;;
25175;SDS011;13135;55.166;61.286;2023-05-28T06:48:11;16.70;;;10.93;;
25175;SDS011;13135;55.166;61.286;2023-05-28T06:50:58;14.93;;;10.60;;
25175;SDS011;13135;55.166;61.286;2023-05-28T06:53:45;14.05;;;10.98;;
25175;SDS011;13135;55.166;61.286;2023-05-28T06:56:29;14.48;;;10.93;;
25175;SDS011;13135;55.166;61.286;2023-05-28T06:59:16;14.98;;;10.63;;
25175;SDS011;13135;55.166;61.286;2023-05-28T07:02:00;14.43;;;10.73;;
25175;SDS011;13135;55.166;61.286;2023-05-28T07:04:45;12.02;;;10.40;;
25175;SDS011;13135;55.166;61.286;2023-05-28T07:07:29;13.52;;;10.45;;
25175;SDS011;13135;55.166;61.286;2023-05-28T07:10:14;13.95;;;10.07;;
25175;SDS011;13135;55.166;61.286;2023-05-28T07:12:59;15.55;;;11.30;;
25175;SDS011;13135;55.166;61.286;2023-05-28T07:15:43;14.65;;;10.98;;
25175;SDS011;13135;55.166;61.286;2023-05-28T07:18:29;12.45;;;10.45;;
25175;SDS011;13135;55.166;61.286;2023-05-28T07:21:14;14.80;;;11.00;;
25175;SDS011;13135;55.166;61.286;2023-05-28T07:23:59;12.57;;;10.20;;
25175;SDS011;13135;55.166;61.286;2023-05-28T07:26:46;15.88;;;10.52;;
25175;SDS011;13135;55.166;61.286;2023-05-28T07:29:31;13.18;;;10.60;;
25175;SDS011;13135;55.166;61.286;2023-05-28T07:32:16;14.57;;;11.12;;
25175;SDS011;13135;55.166;61.286;2023-05-28T07:35:01;14.85;;;10.85;;
25175;SDS011;13135;55.166;61.286;2023-05-28T07:37:45;12.45;;;10.40;;
25175;SDS011;13135;55.166;61.286;2023-05-28T07:40:32;13.70;;;10.40;;
25175;SDS011;13135;55.166;61.286;2023-05-28T07:43:17;11.77;;;10.52;;
25175;SDS011;13135;55.166;61.286;2023-05-28T07:46:02;12.73;;;10.38;;
25175;SDS011;13135;55.166;61.286;2023-05-28T07:48:48;14.98;;;10.77;;
25175;SDS011;13135;55.166;61.286;2023-05-28T07:51:35;12.45;;;11.15;;
25175;SDS011;13135;55.166;61.286;2023-05-28T07:54:17;13.13;;;11.12;;
25175;SDS011;13135;55.166;61.286;2023-05-28T07:57:01;13.98;;;10.88;;
25175;SDS011;13135;55.166;61.286;2023-05-28T07:59:46;11.90;;;10.65;;
25175;SDS011;13135;55.166;61.286;2023-05-28T08:05:25;13.32;;;11.65;;
25175;SDS011;13135;55.166;61.286;2023-05-28T08:08:10;14.87;;;11.30;;
25175;SDS011;13135;55.166;61.286;2023-05-28T08:10:54;15.23;;;11.30;;
25175;SDS011;13135;55.166;61.286;2023-05-28T08:13:40;12.45;;;11.15;;
25175;SDS011;13135;55.166;61.286;2023-05-28T08:16:24;12.98;;;10.35;;
25175;SDS011;13135;55.166;61.286;2023-05-28T08:19:09;14.18;;;10.98;;
25175;SDS011;13135;55.166;61.286;2023-05-28T08:21:54;39.92;;;12.13;;
25175;SDS011;13135;55.166;61.286;2023-05-28T08:24:35;14.20;;;11.18;;
25175;SDS011;13135;55.166;61.286;2023-05-28T08:27:22;14.00;;;10.70;;
25175;SDS011;13135;55.166;61.286;2023-05-28T08:30:07;11.88;;;10.38;;
25175;SDS011;13135;55.166;61.286;2023-05-28T08:32:54;17.33;;;11.12;;
25175;SDS011;13135;55.166;61.286;2023-05-28T08:35:39;11.57;;;9.93;;
25175;SDS011;13135;55.166;61.286;2023-05-28T08:38:23;11.32;;;10.15;;
25175;SDS011;13135;55.166;61.286;2023-05-28T08:41:08;14.25;;;10.07;;
25175;SDS011;13135;55.166;61.286;2023-05-28T08:43:55;11.55;;;10.38;;
25175;SDS011;13135;55.166;61.286;2023-05-28T08:46:39;16.65;;;10.95;;
25175;SDS011;13135;55.166;61.286;2023-05-28T08:49:37;13.90;;;11.10;;
25175;SDS011;13135;55.166;61.286;2023-05-28T08:52:07;12.40;;;10.98;;
25175;SDS011;13135;55.166;61.286;2023-05-28T08:54:51;17.50;;;11.55;;
25175;SDS011;13135;55.166;61.286;2023-05-28T08:57:38;12.65;;;11.35;;
25175;SDS011;13135;55.166;61.286;2023-05-28T09:00:22;14.02;;;11.38;;
25175;SDS011;13135;55.166;61.286;2023-05-28T09:03:07;14.35;;;11.12;;
25175;SDS011;13135;55.166;61.286;2023-05-28T09:05:54;12.80;;;10.82;;
25175;SDS011;13135;55.166;61.286;2023-05-28T09:08:43;12.18;;;10.93;;
25175;SDS011;13135;55.166;61.286;2023-05-28T09:11:23;13.25;;;10.30;;
25175;SDS011;13135;55.166;61.286;2023-05-28T09:14:11;11.77;;;10.32;;
25175;SDS011;13135;55.166;61.286;2023-05-28T09:16:53;11.23;;;10.02;;
25175;SDS011;13135;55.166;61.286;2023-05-28T09:19:38;11.80;;;10.38;;
25175;SDS011;13135;55.166;61.286;2023-05-28T09:22:26;12.30;;;10.60;;
25175;SDS011;13135;55.166;61.286;2023-05-28T09:25:10;14.82;;;11.20;;
25175;SDS011;13135;55.166;61.286;2023-05-28T09:27:54;13.38;;;10.73;;
25175;SDS011;13135;55.166;61.286;2023-05-28T09:30:38;13.13;;;10.80;;
25175;SDS011;13135;55.166;61.286;2023-05-28T09:33:23;15.02;;;10.63;;
25175;SDS011;13135;55.166;61.286;2023-05-28T09:36:16;12.50;;;11.20;;
25175;SDS011;13135;55.166;61.286;2023-05-28T09:39:05;14.50;;;11.65;;
25175;SDS011;13135;55.166;61.286;2023-05-28T09:41:46;15.00;;;10.98;;
25175;SDS011;13135;55.166;61.286;2023-05-28T09:44:30;12.73;;;11.43;;
25175;SDS011;13135;55.166;61.286;2023-05-28T09:47:14;14.50;;;11.12;;
25175;SDS011;13135;55.166;61.286;2023-05-28T09:49:59;13.32;;;11.90;;
25175;SDS011;13135;55.166;61.286;2023-05-28T09:52:44;12.93;;;11.57;;
25175;SDS011;13135;55.166;61.286;2023-05-28T09:55:30;13.82;;;11.77;;
25175;SDS011;13135;55.166;61.286;2023-05-28T10:01:31;14.70;;;11.40;;
25175;SDS011;13135;55.166;61.286;2023-05-28T10:04:16;17.23;;;11.35;;
25175;SDS011;13135;55.166;61.286;2023-05-28T10:07:03;14.48;;;11.30;;
25175;SDS011;13135;55.166;61.286;2023-05-28T10:09:50;16.23;;;11.23;;
25175;SDS011;13135;55.166;61.286;2023-05-28T10:12:36;13.73;;;12.30;;
25175;SDS011;13135;55.166;61.286;2023-05-28T10:15:23;15.43;;;11.07;;
25175;SDS011;13135;55.166;61.286;2023-05-28T10:18:08;15.77;;;11.75;;
25175;SDS011;13135;55.166;61.286;2023-05-28T10:20:53;18.65;;;11.57;;
25175;SDS011;13135;55.166;61.286;2023-05-28T10:23:38;13.93;;;12.18;;
25175;SDS011;13135;55.166;61.286;2023-05-28T10:26:25;13.00;;;11.25;;
25175;SDS011;13135;55.166;61.286;2023-05-28T10:29:18;13.13;;;11.73;;
25175;SDS011;13135;55.166;61.286;2023-05-28T10:32:05;16.40;;;11.95;;
25175;SDS011;13135;55.166;61.286;2023-05-28T10:34:58;13.48;;;12.07;;
25175;SDS011;13135;55.166;61.286;2023-05-28T10:37:37;14.25;;;11.30;;
25175;SDS011;13135;55.166;61.286;2023-05-28T10:40:22;16.08;;;11.45;;
25175;SDS011;13135;55.166;61.286;2023-05-28T10:46:09;17.00;;;11.55;;
25175;SDS011;13135;55.166;61.286;2023-05-28T10:49:05;12.60;;;11.00;;
25175;SDS011;13135;55.166;61.286;2023-05-28T10:51:56;13.98;;;11.40;;
25175;SDS011;13135;55.166;61.286;2023-05-28T10:54:40;18.05;;;12.27;;
25175;SDS011;13135;55.166;61.286;2023-05-28T10:57:26;15.05;;;11.00;;
25175;SDS011;13135;55.166;61.286;2023-05-28T11:00:23;14.80;;;11.10;;
25175;SDS011;13135;55.166;61.286;2023-05-28T11:03:08;13.35;;;10.48;;
25175;SDS011;13135;55.166;61.286;2023-05-28T11:05:55;14.15;;;10.68;;
25175;SDS011;13135;55.166;61.286;2023-05-28T11:08:44;15.25;;;11.20;;
25175;SDS011;13135;55.166;61.286;2023-05-28T11:11:30;13.70;;;11.23;;
25175;SDS011;13135;55.166;61.286;2023-05-28T11:14:15;13.82;;;11.77;;
25175;SDS011;13135;55.166;61.286;2023-05-28T11:17:05;14.50;;;11.27;;
25175;SDS011;13135;55.166;61.286;2023-05-28T11:19:48;12.18;;;10.85;;
25175;SDS011;13135;55.166;61.286;2023-05-28T11:22:35;13.40;;;11.57;;
25175;SDS011;13135;55.166;61.286;2023-05-28T11:25:22;13.32;;;10.65;;
25175;SDS011;13135;55.166;61.286;2023-05-28T11:28:08;14.23;;;12.20;;
25175;SDS011;13135;55.166;61.286;2023-05-28T11:30:55;10.50;;;9.40;;
25175;SDS011;13135;55.166;61.286;2023-05-28T11:33:40;18.55;;;15.20;;
25175;SDS011;13135;55.166;61.286;2023-05-28T11:36:27;12.07;;;10.77;;
25175;SDS011;13135;55.166;61.286;2023-05-28T11:39:12;22.50;;;13.10;;
25175;SDS011;13135;55.166;61.286;2023-05-28T11:41:59;19.40;;;11.65;;
25175;SDS011;13135;55.166;61.286;2023-05-28T11:44:50;12.00;;;10.80;;
25175;SDS011;13135;55.166;61.286;2023-05-28T11:47:35;19.50;;;16.08;;
25175;SDS011;13135;55.166;61.286;2023-05-28T11:50:22;16.67;;;12.93;;
25175;SDS011;13135;55.166;61.286;2023-05-28T11:53:09;13.05;;;10.05;;
25175;SDS011;13135;55.166;61.286;2023-05-28T11:55:54;11.38;;;10.25;;
25175;SDS011;13135;55.166;61.286;2023-05-28T11:58:44;12.25;;;10.68;;
25175;SDS011;13135;55.166;61.286;2023-05-28T12:01:31;12.05;;;10.75;;
25175;SDS011;13135;55.166;61.286;2023-05-28T12:04:21;23.12;;;17.55;;
25175;SDS011;13135;55.166;61.286;2023-05-28T12:07:11;12.40;;;11.18;;
25175;SDS011;13135;55.166;61.286;2023-05-28T12:10:02;10.95;;;9.55;;
25175;SDS011;13135;55.166;61.286;2023-05-28T12:12:50;13.93;;;10.45;;
25175;SDS011;13135;55.166;61.286;2023-05-28T12:15:34;15.48;;;10.45;;
25175;SDS011;13135;55.166;61.286;2023-05-28T12:18:20;14.57;;;11.02;;
25175;SDS011;13135;55.166;61.286;2023-05-28T12:21:04;11.43;;;9.75;;
25175;SDS011;13135;55.166;61.286;2023-05-28T12:23:52;13.68;;;10.25;;
25175;SDS011;13135;55.166;61.286;2023-05-28T12:26:33;13.30;;;10.95;;
25175;SDS011;13135;55.166;61.286;2023-05-28T12:29:20;13.85;;;10.70;;
25175;SDS011;13135;55.166;61.286;2023-05-28T12:32:05;15.68;;;10.80;;
25175;SDS011;13135;55.166;61.286;2023-05-28T12:34:52;13.57;;;11.23;;
25175;SDS011;13135;55.166;61.286;2023-05-28T12:37:39;16.85;;;10.93;;
25175;SDS011;13135;55.166;61.286;2023-05-28T12:40:28;12.07;;;10.50;;
25175;SDS011;13135;55.166;61.286;2023-05-28T12:43:17;12.80;;;10.18;;
25175;SDS011;13135;55.166;61.286;2023-05-28T12:46:02;13.05;;;10.10;;
25175;SDS011;13135;55.166;61.286;2023-05-28T12:48:48;12.70;;;10.85;;
25175;SDS011;13135;55.166;61.286;2023-05-28T12:51:35;13.70;;;10.27;;
25175;SDS011;13135;55.166;61.286;2023-05-28T12:54:20;15.23;;;10.43;;
25175;SDS011;13135;55.166;61.286;2023-05-28T12:57:01;13.05;;;10.73;;
25175;SDS011;13135;55.166;61.286;2023-05-28T12:59:46;13.88;;;11.27;;
25175;SDS011;13135;55.166;61.286;2023-05-28T13:02:33;13.18;;;10.82;;
25175;SDS011;13135;55.166;61.286;2023-05-28T13:05:20;13.77;;;10.57;;
25175;SDS011;13135;55.166;61.286;2023-05-28T13:08:04;12.02;;;10.60;;
25175;SDS011;13135;55.166;61.286;2023-05-28T13:10:51;16.25;;;10.77;;
25175;SDS011;13135;55.166;61.286;2023-05-28T13:13:37;19.83;;;10.93;;
25175;SDS011;13135;55.166;61.286;2023-05-28T13:16:22;11.75;;;10.32;;
25175;SDS011;13135;55.166;61.286;2023-05-28T13:19:10;14.63;;;11.95;;
25175;SDS011;13135;55.166;61.286;2023-05-28T13:21:55;15.25;;;12.35;;
25175;SDS011;13135;55.166;61.286;2023-05-28T13:24:39;16.42;;;12.32;;
25175;SDS011;13135;55.166;61.286;2023-05-28T13:27:25;14.70;;;11.23;;
25175;SDS011;13135;55.166;61.286;2023-05-28T13:30:10;13.82;;;11.32;;
25175;SDS011;13135;55.166;61.286;2023-05-28T13:32:55;12.68;;;11.32;;
25175;SDS011;13135;55.166;61.286;2023-05-28T13:35:41;16.92;;;14.80;;
25175;SDS011;13135;55.166;61.286;2023-05-28T13:38:26;13.85;;;11.48;;
25175;SDS011;13135;55.166;61.286;2023-05-28T13:41:13;15.23;;;12.52;;
25175;SDS011;13135;55.166;61.286;2023-05-28T13:44:00;15.15;;;11.60;;
25175;SDS011;13135;55.166;61.286;2023-05-28T13:46:45;13.85;;;11.30;;
25175;SDS011;13135;55.166;61.286;2023-05-28T13:49:32;14.00;;;11.52;;
25175;SDS011;13135;55.166;61.286;2023-05-28T13:52:19;13.48;;;11.48;;
25175;SDS011;13135;55.166;61.286;2023-05-28T13:55:06;13.57;;;11.25;;
25175;SDS011;13135;55.166;61.286;2023-05-28T13:57:53;13.10;;;11.27;;
25175;SDS011;13135;55.166;61.286;2023-05-28T14:00:40;16.15;;;11.55;;
25175;SDS011;13135;55.166;61.286;2023-05-28T14:03:24;15.05;;;11.57;;
25175;SDS011;13135;55.166;61.286;2023-05-28T14:06:09;12.77;;;11.30;;
25175;SDS011;13135;55.166;61.286;2023-05-28T14:08:54;14.27;;;11.48;;
25175;SDS011;13135;55.166;61.286;2023-05-28T14:11:39;29.08;;;24.37;;
25175;SDS011;13135;55.166;61.286;2023-05-28T14:14:26;26.90;;;20.37;;
25175;SDS011;13135;55.166;61.286;2023-05-28T14:17:10;15.80;;;12.40;;
25175;SDS011;13135;55.166;61.286;2023-05-28T14:19:57;17.10;;;11.43;;
25175;SDS011;13135;55.166;61.286;2023-05-28T14:22:42;18.37;;;11.75;;
25175;SDS011;13135;55.166;61.286;2023-05-28T14:25:29;12.57;;;11.02;;
25175;SDS011;13135;55.166;61.286;2023-05-28T14:28:14;12.68;;;10.90;;
25175;SDS011;13135;55.166;61.286;2023-05-28T14:30:58;17.10;;;11.73;;
25175;SDS011;13135;55.166;61.286;2023-05-28T14:33:43;14.30;;;12.05;;
25175;SDS011;13135;55.166;61.286;2023-05-28T14:36:29;14.68;;;12.13;;
25175;SDS011;13135;55.166;61.286;2023-05-28T14:39:14;16.27;;;11.77;;
25175;SDS011;13135;55.166;61.286;2023-05-28T14:42:01;18.60;;;13.30;;
25175;SDS011;13135;55.166;61.286;2023-05-28T14:44:45;15.23;;;12.45;;
25175;SDS011;13135;55.166;61.286;2023-05-28T14:47:32;18.08;;;12.75;;
25175;SDS011;13135;55.166;61.286;2023-05-28T14:50:15;18.12;;;13.05;;
25175;SDS011;13135;55.166;61.286;2023-05-28T14:53:02;18.23;;;13.40;;
25175;SDS011;13135;55.166;61.286;2023-05-28T14:55:49;25.67;;;19.20;;
25175;SDS011;13135;55.166;61.286;2023-05-28T14:58:36;23.98;;;19.30;;
25175;SDS011;13135;55.166;61.286;2023-05-28T15:01:23;20.02;;;15.80;;
25175;SDS011;13135;55.166;61.286;2023-05-28T15:04:09;18.40;;;14.18;;
25175;SDS011;13135;55.166;61.286;2023-05-28T15:06:56;18.77;;;14.38;;
25175;SDS011;13135;55.166;61.286;2023-05-28T15:09:43;16.98;;;14.00;;
25175;SDS011;13135;55.166;61.286;2023-05-28T15:12:30;21.45;;;15.43;;
25175;SDS011;13135;55.166;61.286;2023-05-28T15:15:12;18.83;;;14.63;;
25175;SDS011;13135;55.166;61.286;2023-05-28T15:17:59;17.42;;;14.05;;
25175;SDS011;13135;55.166;61.286;2023-05-28T15:20:43;19.83;;;14.15;;
25175;SDS011;13135;55.166;61.286;2023-05-28T15:23:27;20.40;;;14.95;;
25175;SDS011;13135;55.166;61.286;2023-05-28T15:26:12;20.08;;;15.70;;
25175;SDS011;13135;55.166;61.286;2023-05-28T15:28:59;20.73;;;16.42;;
25175;SDS011;13135;55.166;61.286;2023-05-28T15:31:43;20.95;;;16.77;;
25175;SDS011;13135;55.166;61.286;2023-05-28T15:34:28;18.42;;;15.68;;
25175;SDS011;13135;55.166;61.286;2023-05-28T15:37:12;20.25;;;15.35;;
25175;SDS011;13135;55.166;61.286;2023-05-28T15:39:57;21.20;;;15.15;;
25175;SDS011;13135;55.166;61.286;2023-05-28T15:42:42;16.27;;;14.27;;
25175;SDS011;13135;55.166;61.286;2023-05-28T15:45:27;22.67;;;15.23;;
25175;SDS011;13135;55.166;61.286;2023-05-28T15:48:13;20.20;;;15.13;;
25175;SDS011;13135;55.166;61.286;2023-05-28T15:51:00;20.80;;;15.40;;
25175;SDS011;13135;55.166;61.286;2023-05-28T15:53:47;19.67;;;15.45;;
25175;SDS011;13135;55.166;61.286;2023-05-28T15:56:29;22.40;;;15.75;;
25175;SDS011;13135;55.166;61.286;2023-05-28T15:59:16;19.98;;;15.20;;
25175;SDS011;13135;55.166;61.286;2023-05-28T16:02:03;21.73;;;15.55;;
25175;SDS011;13135;55.166;61.286;2023-05-28T16:04:50;20.25;;;15.68;;
25175;SDS011;13135;55.166;61.286;2023-05-28T16:07:35;20.62;;;16.05;;
25175;SDS011;13135;55.166;61.286;2023-05-28T16:10:22;26.50;;;17.58;;
25175;SDS011;13135;55.166;61.286;2023-05-28T16:13:09;23.30;;;17.25;;